sensor_id;sensor_type;location;lat;lon;timestamp;P1;durP1;ratioP1;P2;durP2;ratioP2
75787;SDS011;64406;50.024;14.492;2024-03-08T00:00:23;35.67;;;18.25;;
75787;SDS011;64406;50.024;14.492;2024-03-08T00:03:09;34.88;;;17.02;;
75787;SDS011;64406;50.024;14.492;2024-03-08T00:05:35;35.05;;;17.02;;
75787;SDS011;64406;50.024;14.492;2024-03-08T00:08:04;37.10;;;18.10;;
75787;SDS011;64406;50.024;14.492;2024-03-08T00:10:34;37.53;;;17.42;;
75787;SDS011;64406;50.024;14.492;2024-03-08T00:12:59;41.15;;;19.70;;
75787;SDS011;64406;50.024;14.492;2024-03-08T00:15:25;37.90;;;17.92;;
75787;SDS011;64406;50.024;14.492;2024-03-08T00:17:51;40.72;;;18.25;;
75787;SDS011;64406;50.024;14.492;2024-03-08T00:20:17;34.83;;;18.13;;
75787;SDS011;64406;50.024;14.492;2024-03-08T00:22:45;36.83;;;17.30;;
75787;SDS011;64406;50.024;14.492;2024-03-08T00:25:11;38.17;;;19.73;;
75787;SDS011;64406;50.024;14.492;2024-03-08T00:27:37;38.17;;;19.40;;
75787;SDS011;64406;50.024;14.492;2024-03-08T00:30:06;36.80;;;18.70;;
75787;SDS011;64406;50.024;14.492;2024-03-08T00:32:33;36.45;;;18.33;;
75787;SDS011;64406;50.024;14.492;2024-03-08T00:34:59;34.97;;;19.25;;
75787;SDS011;64406;50.024;14.492;2024-03-08T00:37:25;41.15;;;18.73;;
75787;SDS011;64406;50.024;14.492;2024-03-08T00:39:50;34.78;;;18.00;;
75787;SDS011;64406;50.024;14.492;2024-03-08T00:42:17;37.17;;;17.98;;
75787;SDS011;64406;50.024;14.492;2024-03-08T00:44:43;41.53;;;20.20;;
75787;SDS011;64406;50.024;14.492;2024-03-08T00:47:10;41.47;;;19.02;;
75787;SDS011;64406;50.024;14.492;2024-03-08T00:49:36;35.78;;;18.15;;
75787;SDS011;64406;50.024;14.492;2024-03-08T00:52:04;39.05;;;18.80;;
75787;SDS011;64406;50.024;14.492;2024-03-08T00:54:36;35.90;;;18.48;;
75787;SDS011;64406;50.024;14.492;2024-03-08T00:57:02;38.75;;;19.17;;
75787;SDS011;64406;50.024;14.492;2024-03-08T00:59:29;37.22;;;18.08;;
75787;SDS011;64406;50.024;14.492;2024-03-08T01:01:58;39.17;;;18.67;;
75787;SDS011;64406;50.024;14.492;2024-03-08T01:04:25;38.47;;;19.00;;
75787;SDS011;64406;50.024;14.492;2024-03-08T01:06:53;34.00;;;19.13;;
75787;SDS011;64406;50.024;14.492;2024-03-08T01:09:18;41.42;;;18.80;;
75787;SDS011;64406;50.024;14.492;2024-03-08T01:11:45;42.85;;;18.27;;
75787;SDS011;64406;50.024;14.492;2024-03-08T01:14:11;37.72;;;18.60;;
75787;SDS011;64406;50.024;14.492;2024-03-08T01:16:36;34.28;;;18.98;;
75787;SDS011;64406;50.024;14.492;2024-03-08T01:19:02;36.28;;;17.88;;
75787;SDS011;64406;50.024;14.492;2024-03-08T01:21:28;43.25;;;18.67;;
75787;SDS011;64406;50.024;14.492;2024-03-08T01:23:54;41.75;;;18.88;;
75787;SDS011;64406;50.024;14.492;2024-03-08T01:26:20;41.03;;;19.85;;
75787;SDS011;64406;50.024;14.492;2024-03-08T01:28:45;34.58;;;18.92;;
75787;SDS011;64406;50.024;14.492;2024-03-08T01:31:11;37.53;;;17.92;;
75787;SDS011;64406;50.024;14.492;2024-03-08T01:33:37;39.72;;;18.92;;
75787;SDS011;64406;50.024;14.492;2024-03-08T01:36:03;41.75;;;20.67;;
75787;SDS011;64406;50.024;14.492;2024-03-08T01:38:28;42.40;;;19.67;;
75787;SDS011;64406;50.024;14.492;2024-03-08T01:40:54;40.85;;;19.42;;
75787;SDS011;64406;50.024;14.492;2024-03-08T01:43:26;37.05;;;18.00;;
75787;SDS011;64406;50.024;14.492;2024-03-08T01:45:59;36.15;;;18.73;;
75787;SDS011;64406;50.024;14.492;2024-03-08T01:48:26;38.08;;;19.10;;
75787;SDS011;64406;50.024;14.492;2024-03-08T01:50:53;38.08;;;18.90;;
75787;SDS011;64406;50.024;14.492;2024-03-08T01:53:19;37.55;;;19.05;;
75787;SDS011;64406;50.024;14.492;2024-03-08T01:55:46;38.25;;;18.40;;
75787;SDS011;64406;50.024;14.492;2024-03-08T01:58:13;41.22;;;19.63;;
75787;SDS011;64406;50.024;14.492;2024-03-08T02:00:45;42.35;;;20.42;;
75787;SDS011;64406;50.024;14.492;2024-03-08T02:03:14;36.85;;;18.83;;
75787;SDS011;64406;50.024;14.492;2024-03-08T02:05:41;39.17;;;19.02;;
75787;SDS011;64406;50.024;14.492;2024-03-08T02:08:07;40.05;;;19.27;;
75787;SDS011;64406;50.024;14.492;2024-03-08T02:10:38;34.70;;;19.13;;
75787;SDS011;64406;50.024;14.492;2024-03-08T02:13:04;40.15;;;19.85;;
75787;SDS011;64406;50.024;14.492;2024-03-08T02:18:26;37.78;;;17.58;;
75787;SDS011;64406;50.024;14.492;2024-03-08T02:20:52;38.58;;;19.58;;
75787;SDS011;64406;50.024;14.492;2024-03-08T02:23:19;38.22;;;18.02;;
75787;SDS011;64406;50.024;14.492;2024-03-08T02:25:46;37.35;;;20.00;;
75787;SDS011;64406;50.024;14.492;2024-03-08T02:28:14;41.97;;;19.33;;
75787;SDS011;64406;50.024;14.492;2024-03-08T02:30:40;41.83;;;20.63;;
75787;SDS011;64406;50.024;14.492;2024-03-08T02:33:06;36.75;;;19.08;;
75787;SDS011;64406;50.024;14.492;2024-03-08T02:35:34;38.78;;;18.80;;
75787;SDS011;64406;50.024;14.492;2024-03-08T02:38:01;46.65;;;20.98;;
75787;SDS011;64406;50.024;14.492;2024-03-08T02:40:29;38.45;;;19.15;;
75787;SDS011;64406;50.024;14.492;2024-03-08T02:42:55;39.80;;;20.25;;
75787;SDS011;64406;50.024;14.492;2024-03-08T02:45:20;41.35;;;20.92;;
75787;SDS011;64406;50.024;14.492;2024-03-08T02:47:46;39.30;;;19.63;;
75787;SDS011;64406;50.024;14.492;2024-03-08T02:50:12;38.63;;;19.80;;
75787;SDS011;64406;50.024;14.492;2024-03-08T02:52:41;39.80;;;18.95;;
75787;SDS011;64406;50.024;14.492;2024-03-08T02:55:11;37.22;;;18.50;;
75787;SDS011;64406;50.024;14.492;2024-03-08T02:57:40;39.45;;;18.48;;
75787;SDS011;64406;50.024;14.492;2024-03-08T03:00:06;48.95;;;20.45;;
75787;SDS011;64406;50.024;14.492;2024-03-08T03:02:34;47.60;;;20.90;;
75787;SDS011;64406;50.024;14.492;2024-03-08T03:05:00;39.00;;;19.83;;
75787;SDS011;64406;50.024;14.492;2024-03-08T03:07:30;41.92;;;19.80;;
75787;SDS011;64406;50.024;14.492;2024-03-08T03:09:56;37.97;;;18.85;;
75787;SDS011;64406;50.024;14.492;2024-03-08T03:12:21;39.40;;;19.25;;
75787;SDS011;64406;50.024;14.492;2024-03-08T03:14:48;43.70;;;20.77;;
75787;SDS011;64406;50.024;14.492;2024-03-08T03:17:13;39.45;;;19.20;;
75787;SDS011;64406;50.024;14.492;2024-03-08T03:19:42;38.50;;;19.70;;
75787;SDS011;64406;50.024;14.492;2024-03-08T03:22:08;40.55;;;19.35;;
75787;SDS011;64406;50.024;14.492;2024-03-08T03:24:36;42.40;;;19.95;;
75787;SDS011;64406;50.024;14.492;2024-03-08T03:27:06;39.58;;;20.55;;
75787;SDS011;64406;50.024;14.492;2024-03-08T03:29:36;40.67;;;19.95;;
75787;SDS011;64406;50.024;14.492;2024-03-08T03:32:03;43.40;;;20.65;;
75787;SDS011;64406;50.024;14.492;2024-03-08T03:34:29;42.38;;;21.40;;
75787;SDS011;64406;50.024;14.492;2024-03-08T03:36:55;39.72;;;20.70;;
75787;SDS011;64406;50.024;14.492;2024-03-08T03:39:21;40.67;;;20.05;;
75787;SDS011;64406;50.024;14.492;2024-03-08T03:41:48;41.63;;;20.30;;
75787;SDS011;64406;50.024;14.492;2024-03-08T03:44:17;43.10;;;21.10;;
75787;SDS011;64406;50.024;14.492;2024-03-08T03:46:43;41.60;;;20.15;;
75787;SDS011;64406;50.024;14.492;2024-03-08T03:49:09;38.05;;;19.23;;
75787;SDS011;64406;50.024;14.492;2024-03-08T03:51:35;44.55;;;20.80;;
75787;SDS011;64406;50.024;14.492;2024-03-08T03:54:00;44.42;;;21.40;;
75787;SDS011;64406;50.024;14.492;2024-03-08T03:56:28;43.38;;;21.05;;
75787;SDS011;64406;50.024;14.492;2024-03-08T03:58:55;45.85;;;20.63;;
75787;SDS011;64406;50.024;14.492;2024-03-08T04:01:21;47.75;;;21.02;;
75787;SDS011;64406;50.024;14.492;2024-03-08T04:03:47;38.45;;;19.60;;
75787;SDS011;64406;50.024;14.492;2024-03-08T04:06:13;49.40;;;20.80;;
75787;SDS011;64406;50.024;14.492;2024-03-08T04:08:39;43.50;;;20.25;;
75787;SDS011;64406;50.024;14.492;2024-03-08T04:11:06;45.58;;;20.40;;
75787;SDS011;64406;50.024;14.492;2024-03-08T04:13:34;49.08;;;21.50;;
75787;SDS011;64406;50.024;14.492;2024-03-08T04:15:59;47.78;;;20.90;;
75787;SDS011;64406;50.024;14.492;2024-03-08T04:18:25;46.22;;;21.67;;
75787;SDS011;64406;50.024;14.492;2024-03-08T04:20:52;39.70;;;20.58;;
75787;SDS011;64406;50.024;14.492;2024-03-08T04:23:18;47.67;;;21.85;;
75787;SDS011;64406;50.024;14.492;2024-03-08T04:25:44;47.42;;;22.08;;
75787;SDS011;64406;50.024;14.492;2024-03-08T04:28:10;44.13;;;21.20;;
75787;SDS011;64406;50.024;14.492;2024-03-08T04:30:37;43.53;;;21.52;;
75787;SDS011;64406;50.024;14.492;2024-03-08T04:33:03;45.92;;;22.00;;
75787;SDS011;64406;50.024;14.492;2024-03-08T04:35:29;47.22;;;22.27;;
75787;SDS011;64406;50.024;14.492;2024-03-08T04:37:55;47.22;;;20.33;;
75787;SDS011;64406;50.024;14.492;2024-03-08T04:40:22;43.00;;;18.70;;
75787;SDS011;64406;50.024;14.492;2024-03-08T04:42:48;47.15;;;20.52;;
75787;SDS011;64406;50.024;14.492;2024-03-08T04:45:16;45.30;;;21.33;;
75787;SDS011;64406;50.024;14.492;2024-03-08T04:47:42;42.67;;;20.40;;
75787;SDS011;64406;50.024;14.492;2024-03-08T04:50:08;44.83;;;21.27;;
75787;SDS011;64406;50.024;14.492;2024-03-08T04:52:34;46.60;;;22.40;;
75787;SDS011;64406;50.024;14.492;2024-03-08T04:55:01;45.45;;;22.08;;
75787;SDS011;64406;50.024;14.492;2024-03-08T04:57:29;44.65;;;21.00;;
75787;SDS011;64406;50.024;14.492;2024-03-08T04:59:55;46.03;;;20.75;;
75787;SDS011;64406;50.024;14.492;2024-03-08T05:02:21;47.33;;;22.30;;
75787;SDS011;64406;50.024;14.492;2024-03-08T05:04:48;48.78;;;21.23;;
75787;SDS011;64406;50.024;14.492;2024-03-08T05:07:13;45.00;;;21.52;;
75787;SDS011;64406;50.024;14.492;2024-03-08T05:09:39;51.05;;;22.40;;
75787;SDS011;64406;50.024;14.492;2024-03-08T05:12:06;46.60;;;21.08;;
75787;SDS011;64406;50.024;14.492;2024-03-08T05:14:33;48.43;;;21.57;;
75787;SDS011;64406;50.024;14.492;2024-03-08T05:17:00;39.47;;;20.37;;
75787;SDS011;64406;50.024;14.492;2024-03-08T05:19:26;55.80;;;22.37;;
75787;SDS011;64406;50.024;14.492;2024-03-08T05:21:52;47.55;;;21.92;;
75787;SDS011;64406;50.024;14.492;2024-03-08T05:24:18;50.53;;;23.30;;
75787;SDS011;64406;50.024;14.492;2024-03-08T05:26:44;50.85;;;23.42;;
75787;SDS011;64406;50.024;14.492;2024-03-08T05:29:10;52.13;;;22.15;;
75787;SDS011;64406;50.024;14.492;2024-03-08T05:31:45;49.53;;;20.92;;
75787;SDS011;64406;50.024;14.492;2024-03-08T05:34:13;49.53;;;21.98;;
75787;SDS011;64406;50.024;14.492;2024-03-08T05:36:40;47.67;;;22.17;;
75787;SDS011;64406;50.024;14.492;2024-03-08T05:39:06;46.42;;;22.52;;
75787;SDS011;64406;50.024;14.492;2024-03-08T05:41:32;43.55;;;20.27;;
75787;SDS011;64406;50.024;14.492;2024-03-08T05:43:58;53.77;;;24.70;;
75787;SDS011;64406;50.024;14.492;2024-03-08T05:46:23;47.30;;;21.45;;
75787;SDS011;64406;50.024;14.492;2024-03-08T05:48:49;52.37;;;23.80;;
75787;SDS011;64406;50.024;14.492;2024-03-08T05:51:15;47.88;;;21.85;;
75787;SDS011;64406;50.024;14.492;2024-03-08T05:53:40;50.00;;;22.42;;
75787;SDS011;64406;50.024;14.492;2024-03-08T05:56:06;50.40;;;21.42;;
75787;SDS011;64406;50.024;14.492;2024-03-08T05:58:31;47.35;;;20.90;;
75787;SDS011;64406;50.024;14.492;2024-03-08T06:00:57;47.78;;;22.20;;
75787;SDS011;64406;50.024;14.492;2024-03-08T06:03:23;51.75;;;23.25;;
75787;SDS011;64406;50.024;14.492;2024-03-08T06:05:49;44.53;;;20.65;;
75787;SDS011;64406;50.024;14.492;2024-03-08T06:08:14;49.78;;;21.67;;
75787;SDS011;64406;50.024;14.492;2024-03-08T06:10:41;53.03;;;23.02;;
75787;SDS011;64406;50.024;14.492;2024-03-08T06:13:06;52.85;;;22.80;;
75787;SDS011;64406;50.024;14.492;2024-03-08T06:15:32;46.47;;;21.48;;
75787;SDS011;64406;50.024;14.492;2024-03-08T06:17:57;50.50;;;22.58;;
75787;SDS011;64406;50.024;14.492;2024-03-08T06:20:23;51.28;;;21.10;;
75787;SDS011;64406;50.024;14.492;2024-03-08T06:22:51;51.80;;;23.33;;
75787;SDS011;64406;50.024;14.492;2024-03-08T06:25:17;55.35;;;22.27;;
75787;SDS011;64406;50.024;14.492;2024-03-08T06:27:43;46.97;;;21.10;;
75787;SDS011;64406;50.024;14.492;2024-03-08T06:30:09;45.10;;;22.48;;
75787;SDS011;64406;50.024;14.492;2024-03-08T06:32:36;48.35;;;22.67;;
75787;SDS011;64406;50.024;14.492;2024-03-08T06:35:03;46.92;;;21.45;;
75787;SDS011;64406;50.024;14.492;2024-03-08T06:37:34;42.30;;;20.63;;
75787;SDS011;64406;50.024;14.492;2024-03-08T06:40:00;47.28;;;21.83;;
75787;SDS011;64406;50.024;14.492;2024-03-08T06:42:27;41.92;;;19.33;;
75787;SDS011;64406;50.024;14.492;2024-03-08T06:44:53;45.90;;;20.95;;
75787;SDS011;64406;50.024;14.492;2024-03-08T06:47:21;43.58;;;20.65;;
75787;SDS011;64406;50.024;14.492;2024-03-08T06:49:53;44.20;;;21.90;;
75787;SDS011;64406;50.024;14.492;2024-03-08T06:52:18;44.10;;;21.60;;
75787;SDS011;64406;50.024;14.492;2024-03-08T06:54:44;47.83;;;21.20;;
75787;SDS011;64406;50.024;14.492;2024-03-08T06:57:10;49.08;;;20.50;;
75787;SDS011;64406;50.024;14.492;2024-03-08T06:59:36;49.28;;;20.55;;
75787;SDS011;64406;50.024;14.492;2024-03-08T07:02:05;42.42;;;18.80;;
75787;SDS011;64406;50.024;14.492;2024-03-08T07:04:46;43.45;;;18.63;;
75787;SDS011;64406;50.024;14.492;2024-03-08T07:07:21;48.33;;;19.75;;
75787;SDS011;64406;50.024;14.492;2024-03-08T07:09:48;40.03;;;19.10;;
75787;SDS011;64406;50.024;14.492;2024-03-08T07:12:14;41.92;;;19.13;;
75787;SDS011;64406;50.024;14.492;2024-03-08T07:14:40;41.58;;;20.35;;
75787;SDS011;64406;50.024;14.492;2024-03-08T07:17:06;44.47;;;19.70;;
75787;SDS011;64406;50.024;14.492;2024-03-08T07:19:34;37.47;;;18.40;;
75787;SDS011;64406;50.024;14.492;2024-03-08T07:22:00;45.03;;;19.05;;
75787;SDS011;64406;50.024;14.492;2024-03-08T07:24:29;43.35;;;20.73;;
75787;SDS011;64406;50.024;14.492;2024-03-08T07:27:04;36.22;;;17.63;;
75787;SDS011;64406;50.024;14.492;2024-03-08T07:29:33;38.85;;;18.15;;
75787;SDS011;64406;50.024;14.492;2024-03-08T07:31:59;38.42;;;18.33;;
75787;SDS011;64406;50.024;14.492;2024-03-08T07:37:09;30.40;;;14.15;;
75787;SDS011;64406;50.024;14.492;2024-03-08T07:39:39;35.85;;;16.08;;
75787;SDS011;64406;50.024;14.492;2024-03-08T07:42:04;36.38;;;16.45;;
75787;SDS011;64406;50.024;14.492;2024-03-08T07:44:30;37.55;;;17.30;;
75787;SDS011;64406;50.024;14.492;2024-03-08T07:46:59;39.80;;;18.38;;
75787;SDS011;64406;50.024;14.492;2024-03-08T07:49:24;34.67;;;17.00;;
75787;SDS011;64406;50.024;14.492;2024-03-08T07:51:50;38.13;;;17.45;;
75787;SDS011;64406;50.024;14.492;2024-03-08T07:54:17;28.58;;;15.50;;
75787;SDS011;64406;50.024;14.492;2024-03-08T07:56:43;31.40;;;16.33;;
75787;SDS011;64406;50.024;14.492;2024-03-08T07:59:08;32.28;;;14.38;;
75787;SDS011;64406;50.024;14.492;2024-03-08T08:01:36;30.42;;;15.02;;
75787;SDS011;64406;50.024;14.492;2024-03-08T08:04:02;28.17;;;14.45;;
75787;SDS011;64406;50.024;14.492;2024-03-08T08:06:27;25.90;;;13.10;;
75787;SDS011;64406;50.024;14.492;2024-03-08T08:08:57;25.88;;;12.18;;
75787;SDS011;64406;50.024;14.492;2024-03-08T08:11:22;30.23;;;15.07;;
75787;SDS011;64406;50.024;14.492;2024-03-08T08:13:48;29.02;;;13.13;;
75787;SDS011;64406;50.024;14.492;2024-03-08T08:16:13;27.65;;;14.07;;
75787;SDS011;64406;50.024;14.492;2024-03-08T08:18:40;31.15;;;14.30;;
75787;SDS011;64406;50.024;14.492;2024-03-08T08:21:06;28.52;;;13.95;;
75787;SDS011;64406;50.024;14.492;2024-03-08T08:23:32;30.70;;;14.88;;
75787;SDS011;64406;50.024;14.492;2024-03-08T08:25:57;25.88;;;12.95;;
75787;SDS011;64406;50.024;14.492;2024-03-08T08:28:23;31.10;;;14.20;;
75787;SDS011;64406;50.024;14.492;2024-03-08T08:30:49;29.38;;;13.65;;
75787;SDS011;64406;50.024;14.492;2024-03-08T08:33:15;27.90;;;14.60;;
75787;SDS011;64406;50.024;14.492;2024-03-08T08:35:41;31.77;;;15.13;;
75787;SDS011;64406;50.024;14.492;2024-03-08T08:38:08;35.85;;;15.18;;
75787;SDS011;64406;50.024;14.492;2024-03-08T08:40:34;32.33;;;15.15;;
75787;SDS011;64406;50.024;14.492;2024-03-08T08:43:01;35.60;;;16.55;;
75787;SDS011;64406;50.024;14.492;2024-03-08T08:45:30;29.77;;;14.25;;
75787;SDS011;64406;50.024;14.492;2024-03-08T08:47:56;31.05;;;15.10;;
75787;SDS011;64406;50.024;14.492;2024-03-08T08:50:24;33.63;;;16.73;;
75787;SDS011;64406;50.024;14.492;2024-03-08T08:52:50;32.35;;;15.75;;
75787;SDS011;64406;50.024;14.492;2024-03-08T08:55:16;27.75;;;15.55;;
75787;SDS011;64406;50.024;14.492;2024-03-08T08:57:46;30.98;;;15.68;;
75787;SDS011;64406;50.024;14.492;2024-03-08T09:00:13;33.22;;;15.30;;
75787;SDS011;64406;50.024;14.492;2024-03-08T09:02:42;35.75;;;17.23;;
75787;SDS011;64406;50.024;14.492;2024-03-08T09:05:08;29.95;;;14.18;;
75787;SDS011;64406;50.024;14.492;2024-03-08T09:07:34;28.15;;;14.80;;
75787;SDS011;64406;50.024;14.492;2024-03-08T09:09:59;31.27;;;16.52;;
75787;SDS011;64406;50.024;14.492;2024-03-08T09:12:26;34.78;;;15.82;;
75787;SDS011;64406;50.024;14.492;2024-03-08T09:14:51;33.42;;;17.27;;
75787;SDS011;64406;50.024;14.492;2024-03-08T09:17:17;28.75;;;15.23;;
75787;SDS011;64406;50.024;14.492;2024-03-08T09:19:48;34.90;;;16.83;;
75787;SDS011;64406;50.024;14.492;2024-03-08T09:22:14;33.80;;;17.38;;
75787;SDS011;64406;50.024;14.492;2024-03-08T09:24:39;25.90;;;13.43;;
75787;SDS011;64406;50.024;14.492;2024-03-08T09:27:05;31.00;;;16.05;;
75787;SDS011;64406;50.024;14.492;2024-03-08T09:29:31;26.60;;;14.65;;
75787;SDS011;64406;50.024;14.492;2024-03-08T09:31:57;28.92;;;13.32;;
75787;SDS011;64406;50.024;14.492;2024-03-08T09:34:22;25.02;;;12.00;;
75787;SDS011;64406;50.024;14.492;2024-03-08T09:36:49;24.75;;;13.13;;
75787;SDS011;64406;50.024;14.492;2024-03-08T09:39:17;32.85;;;13.73;;
75787;SDS011;64406;50.024;14.492;2024-03-08T09:41:46;25.42;;;12.70;;
75787;SDS011;64406;50.024;14.492;2024-03-08T09:44:15;31.20;;;14.10;;
75787;SDS011;64406;50.024;14.492;2024-03-08T09:46:43;33.42;;;15.88;;
75787;SDS011;64406;50.024;14.492;2024-03-08T09:49:12;26.63;;;14.50;;
75787;SDS011;64406;50.024;14.492;2024-03-08T09:51:38;27.88;;;12.73;;
75787;SDS011;64406;50.024;14.492;2024-03-08T09:54:06;25.02;;;12.90;;
75787;SDS011;64406;50.024;14.492;2024-03-08T09:56:35;28.55;;;13.82;;
75787;SDS011;64406;50.024;14.492;2024-03-08T09:59:01;22.58;;;12.02;;
75787;SDS011;64406;50.024;14.492;2024-03-08T10:01:37;24.38;;;12.80;;
75787;SDS011;64406;50.024;14.492;2024-03-08T10:04:04;24.50;;;11.32;;
75787;SDS011;64406;50.024;14.492;2024-03-08T10:06:30;28.00;;;12.45;;
75787;SDS011;64406;50.024;14.492;2024-03-08T10:08:56;18.77;;;11.15;;
75787;SDS011;64406;50.024;14.492;2024-03-08T10:11:22;21.15;;;11.52;;
75787;SDS011;64406;50.024;14.492;2024-03-08T10:13:50;24.80;;;12.50;;
75787;SDS011;64406;50.024;14.492;2024-03-08T10:16:16;27.50;;;13.38;;
75787;SDS011;64406;50.024;14.492;2024-03-08T10:18:44;32.03;;;14.40;;
75787;SDS011;64406;50.024;14.492;2024-03-08T10:21:11;23.92;;;12.63;;
75787;SDS011;64406;50.024;14.492;2024-03-08T10:23:39;26.80;;;13.30;;
75787;SDS011;64406;50.024;14.492;2024-03-08T10:26:11;30.95;;;14.80;;
75787;SDS011;64406;50.024;14.492;2024-03-08T10:28:46;26.63;;;13.90;;
75787;SDS011;64406;50.024;14.492;2024-03-08T10:31:16;24.65;;;12.55;;
75787;SDS011;64406;50.024;14.492;2024-03-08T10:33:42;25.75;;;13.32;;
75787;SDS011;64406;50.024;14.492;2024-03-08T10:36:10;29.70;;;14.15;;
75787;SDS011;64406;50.024;14.492;2024-03-08T10:38:40;28.35;;;14.32;;
75787;SDS011;64406;50.024;14.492;2024-03-08T10:41:07;25.52;;;13.75;;
75787;SDS011;64406;50.024;14.492;2024-03-08T10:48:55;29.45;;;13.68;;
75787;SDS011;64406;50.024;14.492;2024-03-08T10:51:26;22.92;;;11.60;;
75787;SDS011;64406;50.024;14.492;2024-03-08T10:53:54;24.98;;;13.38;;
75787;SDS011;64406;50.024;14.492;2024-03-08T10:56:23;24.75;;;13.98;;
75787;SDS011;64406;50.024;14.492;2024-03-08T10:58:48;23.80;;;13.25;;
75787;SDS011;64406;50.024;14.492;2024-03-08T11:01:15;24.38;;;12.68;;
75787;SDS011;64406;50.024;14.492;2024-03-08T11:06:23;24.90;;;12.55;;
75787;SDS011;64406;50.024;14.492;2024-03-08T11:08:55;23.85;;;12.35;;
75787;SDS011;64406;50.024;14.492;2024-03-08T11:11:24;23.35;;;12.35;;
75787;SDS011;64406;50.024;14.492;2024-03-08T11:19:06;15.70;;;9.63;;
75787;SDS011;64406;50.024;14.492;2024-03-08T11:21:59;17.88;;;9.68;;
75787;SDS011;64406;50.024;14.492;2024-03-08T11:24:25;14.57;;;8.65;;
75787;SDS011;64406;50.024;14.492;2024-03-08T11:26:58;15.05;;;8.98;;
75787;SDS011;64406;50.024;14.492;2024-03-08T11:32:11;14.55;;;8.38;;
75787;SDS011;64406;50.024;14.492;2024-03-08T11:34:40;17.10;;;9.05;;
75787;SDS011;64406;50.024;14.492;2024-03-08T11:37:12;15.93;;;9.25;;
75787;SDS011;64406;50.024;14.492;2024-03-08T11:39:48;16.50;;;9.25;;
75787;SDS011;64406;50.024;14.492;2024-03-08T11:42:15;18.23;;;9.20;;
75787;SDS011;64406;50.024;14.492;2024-03-08T11:44:45;16.45;;;8.60;;
75787;SDS011;64406;50.024;14.492;2024-03-08T11:47:13;16.52;;;9.32;;
75787;SDS011;64406;50.024;14.492;2024-03-08T11:49:39;16.25;;;8.43;;
75787;SDS011;64406;50.024;14.492;2024-03-08T11:52:13;15.88;;;8.52;;
75787;SDS011;64406;50.024;14.492;2024-03-08T11:54:39;13.25;;;7.03;;
75787;SDS011;64406;50.024;14.492;2024-03-08T11:57:09;9.18;;;5.32;;
75787;SDS011;64406;50.024;14.492;2024-03-08T11:59:37;10.23;;;5.93;;
75787;SDS011;64406;50.024;14.492;2024-03-08T12:02:04;11.27;;;5.60;;
75787;SDS011;64406;50.024;14.492;2024-03-08T12:04:30;9.35;;;5.68;;
75787;SDS011;64406;50.024;14.492;2024-03-08T12:07:05;10.18;;;6.15;;
75787;SDS011;64406;50.024;14.492;2024-03-08T12:09:43;11.52;;;6.35;;
75787;SDS011;64406;50.024;14.492;2024-03-08T12:12:13;12.10;;;7.45;;
75787;SDS011;64406;50.024;14.492;2024-03-08T12:14:42;13.15;;;7.03;;
75787;SDS011;64406;50.024;14.492;2024-03-08T12:17:09;13.88;;;7.28;;
75787;SDS011;64406;50.024;14.492;2024-03-08T12:19:35;12.85;;;6.85;;
75787;SDS011;64406;50.024;14.492;2024-03-08T12:22:09;12.73;;;7.07;;
75787;SDS011;64406;50.024;14.492;2024-03-08T12:24:35;11.98;;;7.22;;
75787;SDS011;64406;50.024;14.492;2024-03-08T12:27:17;12.88;;;7.50;;
75787;SDS011;64406;50.024;14.492;2024-03-08T12:29:43;11.18;;;6.80;;
75787;SDS011;64406;50.024;14.492;2024-03-08T12:32:08;10.10;;;6.60;;
75787;SDS011;64406;50.024;14.492;2024-03-08T12:34:36;10.32;;;5.93;;
75787;SDS011;64406;50.024;14.492;2024-03-08T12:37:02;10.98;;;6.03;;
75787;SDS011;64406;50.024;14.492;2024-03-08T12:39:29;14.23;;;7.13;;
75787;SDS011;64406;50.024;14.492;2024-03-08T12:41:55;13.55;;;7.60;;
75787;SDS011;64406;50.024;14.492;2024-03-08T12:44:25;11.40;;;6.65;;
75787;SDS011;64406;50.024;14.492;2024-03-08T12:46:51;10.73;;;6.47;;
75787;SDS011;64406;50.024;14.492;2024-03-08T12:49:18;8.45;;;5.40;;
75787;SDS011;64406;50.024;14.492;2024-03-08T12:51:47;12.77;;;5.65;;
75787;SDS011;64406;50.024;14.492;2024-03-08T12:54:13;11.40;;;5.93;;
75787;SDS011;64406;50.024;14.492;2024-03-08T12:56:39;11.32;;;6.18;;
75787;SDS011;64406;50.024;14.492;2024-03-08T12:59:05;10.30;;;5.70;;
75787;SDS011;64406;50.024;14.492;2024-03-08T13:01:38;9.73;;;5.50;;
75787;SDS011;64406;50.024;14.492;2024-03-08T13:04:04;9.68;;;5.30;;
75787;SDS011;64406;50.024;14.492;2024-03-08T13:06:32;10.75;;;6.07;;
75787;SDS011;64406;50.024;14.492;2024-03-08T13:08:58;10.43;;;5.80;;
75787;SDS011;64406;50.024;14.492;2024-03-08T13:11:24;10.55;;;6.38;;
75787;SDS011;64406;50.024;14.492;2024-03-08T13:13:53;8.90;;;5.32;;
75787;SDS011;64406;50.024;14.492;2024-03-08T13:16:19;10.10;;;5.55;;
75787;SDS011;64406;50.024;14.492;2024-03-08T13:18:45;17.23;;;6.68;;
75787;SDS011;64406;50.024;14.492;2024-03-08T13:21:14;8.65;;;6.00;;
75787;SDS011;64406;50.024;14.492;2024-03-08T13:23:40;11.45;;;6.10;;
75787;SDS011;64406;50.024;14.492;2024-03-08T13:26:11;12.93;;;5.85;;
75787;SDS011;64406;50.024;14.492;2024-03-08T13:28:46;10.48;;;5.93;;
75787;SDS011;64406;50.024;14.492;2024-03-08T13:31:14;10.10;;;5.65;;
75787;SDS011;64406;50.024;14.492;2024-03-08T13:33:40;10.65;;;6.10;;
75787;SDS011;64406;50.024;14.492;2024-03-08T13:36:10;10.63;;;6.00;;
75787;SDS011;64406;50.024;14.492;2024-03-08T13:38:42;12.23;;;5.20;;
75787;SDS011;64406;50.024;14.492;2024-03-08T13:41:13;8.02;;;5.07;;
75787;SDS011;64406;50.024;14.492;2024-03-08T13:43:43;8.35;;;5.57;;
75787;SDS011;64406;50.024;14.492;2024-03-08T13:46:11;9.77;;;5.68;;
75787;SDS011;64406;50.024;14.492;2024-03-08T13:48:36;13.02;;;5.97;;
75787;SDS011;64406;50.024;14.492;2024-03-08T13:51:07;10.63;;;6.10;;
75787;SDS011;64406;50.024;14.492;2024-03-08T13:53:35;9.32;;;5.40;;
75787;SDS011;64406;50.024;14.492;2024-03-08T13:56:04;11.00;;;6.13;;
75787;SDS011;64406;50.024;14.492;2024-03-08T13:58:30;9.93;;;6.15;;
75787;SDS011;64406;50.024;14.492;2024-03-08T14:00:56;8.02;;;5.35;;
75787;SDS011;64406;50.024;14.492;2024-03-08T14:03:22;11.68;;;6.93;;
75787;SDS011;64406;50.024;14.492;2024-03-08T14:05:49;9.73;;;6.45;;
75787;SDS011;64406;50.024;14.492;2024-03-08T14:08:15;9.88;;;5.40;;
75787;SDS011;64406;50.024;14.492;2024-03-08T14:10:43;11.85;;;7.22;;
75787;SDS011;64406;50.024;14.492;2024-03-08T14:13:12;14.40;;;7.30;;
75787;SDS011;64406;50.024;14.492;2024-03-08T14:15:37;11.60;;;7.18;;
75787;SDS011;64406;50.024;14.492;2024-03-08T14:18:07;12.45;;;7.32;;
75787;SDS011;64406;50.024;14.492;2024-03-08T14:20:33;13.85;;;7.85;;
75787;SDS011;64406;50.024;14.492;2024-03-08T14:22:59;10.07;;;6.40;;
75787;SDS011;64406;50.024;14.492;2024-03-08T14:25:25;12.77;;;7.03;;
75787;SDS011;64406;50.024;14.492;2024-03-08T14:27:51;11.43;;;6.82;;
75787;SDS011;64406;50.024;14.492;2024-03-08T14:30:23;13.70;;;6.57;;
75787;SDS011;64406;50.024;14.492;2024-03-08T14:33:03;11.00;;;6.18;;
75787;SDS011;64406;50.024;14.492;2024-03-08T14:35:37;9.70;;;5.65;;